Terminal Aerodrome Forecast
Issued by NWS Grand Junction, CO

Home | Current Version | Previous Version | Text Only | Print | Product List | Glossary On
Versions: 1 2 3 4 5 6 7 8 9 10 11 12 13 14 15 16 17 18
000
FTUS45 KGJT 210520
TAFGJT
TAF
KGJT 210520Z 2106/2206 04004KT P6SM SCT150 SCT250
     FM210900 13006KT P6SM SKC
     FM211900 29007KT P6SM SCT090 SCT250
     FM220200 05004KT P6SM SCT250=

USA.gov is the U.S. government's official web portal to all federal, state and local government web resources and services.